sensor_id;sensor_type;location;lat;lon;timestamp;P1;P2;P0
72793;PMS5003;63436;26.334;50.194;2023-03-31T00:02:11;60;57;
72793;PMS5003;63436;26.334;50.194;2023-03-31T00:04:36;66;65;
72793;PMS5003;63436;26.334;50.194;2023-03-31T00:07:02;60;60;
72793;PMS5003;63436;26.334;50.194;2023-03-31T00:09:27;66;62;
72793;PMS5003;63436;26.334;50.194;2023-03-31T00:11:53;57;57;
72793;PMS5003;63436;26.334;50.194;2023-03-31T00:14:18;57;56;
72793;PMS5003;63436;26.334;50.194;2023-03-31T00:16:44;56;54;
72793;PMS5003;63436;26.334;50.194;2023-03-31T00:19:09;59;54;
72793;PMS5003;63436;26.334;50.194;2023-03-31T00:21:35;58;57;
72793;PMS5003;63436;26.334;50.194;2023-03-31T00:24:00;53;51;
72793;PMS5003;63436;26.334;50.194;2023-03-31T00:26:25;56;52;
72793;PMS5003;63436;26.334;50.194;2023-03-31T00:28:51;56;52;
72793;PMS5003;63436;26.334;50.194;2023-03-31T00:31:15;61;54;
72793;PMS5003;63436;26.334;50.194;2023-03-31T00:33:41;55;55;
72793;PMS5003;63436;26.334;50.194;2023-03-31T00:36:07;58;57;
72793;PMS5003;63436;26.334;50.194;2023-03-31T00:38:33;58;57;
72793;PMS5003;63436;26.334;50.194;2023-03-31T00:40:58;57;55;
72793;PMS5003;63436;26.334;50.194;2023-03-31T00:43:26;57;53;
72793;PMS5003;63436;26.334;50.194;2023-03-31T00:45:49;59;57;
72793;PMS5003;63436;26.334;50.194;2023-03-31T00:48:16;53;52;
72793;PMS5003;63436;26.334;50.194;2023-03-31T00:50:41;51;50;
72793;PMS5003;63436;26.334;50.194;2023-03-31T00:53:07;48;45;
72793;PMS5003;63436;26.334;50.194;2023-03-31T00:55:32;54;51;
72793;PMS5003;63436;26.334;50.194;2023-03-31T00:57:57;54;51;
72793;PMS5003;63436;26.334;50.194;2023-03-31T01:00:22;54;53;
72793;PMS5003;63436;26.334;50.194;2023-03-31T01:02:48;62;60;
72793;PMS5003;63436;26.334;50.194;2023-03-31T01:05:12;53;51;
72793;PMS5003;63436;26.334;50.194;2023-03-31T01:07:38;56;52;
72793;PMS5003;63436;26.334;50.194;2023-03-31T01:10:03;52;50;
72793;PMS5003;63436;26.334;50.194;2023-03-31T01:12:29;56;52;
72793;PMS5003;63436;26.334;50.194;2023-03-31T01:14:54;59;55;
72793;PMS5003;63436;26.334;50.194;2023-03-31T01:17:20;51;47;
72793;PMS5003;63436;26.334;50.194;2023-03-31T01:19:50;54;51;
72793;PMS5003;63436;26.334;50.194;2023-03-31T01:27:05;60;58;
72793;PMS5003;63436;26.334;50.194;2023-03-31T01:39:12;52;49;
72793;PMS5003;63436;26.334;50.194;2023-03-31T01:41:35;59;55;
72793;PMS5003;63436;26.334;50.194;2023-03-31T01:43:59;56;50;
72793;PMS5003;63436;26.334;50.194;2023-03-31T01:46:24;56;54;
72793;PMS5003;63436;26.334;50.194;2023-03-31T01:48:50;56;55;
72793;PMS5003;63436;26.334;50.194;2023-03-31T01:51:15;58;54;
72793;PMS5003;63436;26.334;50.194;2023-03-31T01:53:41;55;51;
72793;PMS5003;63436;26.334;50.194;2023-03-31T01:56:06;59;56;
72793;PMS5003;63436;26.334;50.194;2023-03-31T01:58:31;58;55;
72793;PMS5003;63436;26.334;50.194;2023-03-31T02:00:57;53;53;
72793;PMS5003;63436;26.334;50.194;2023-03-31T02:03:21;60;52;
72793;PMS5003;63436;26.334;50.194;2023-03-31T02:05:46;48;48;
72793;PMS5003;63436;26.334;50.194;2023-03-31T02:08:12;50;50;
72793;PMS5003;63436;26.334;50.194;2023-03-31T02:10:36;54;52;
72793;PMS5003;63436;26.334;50.194;2023-03-31T02:13:02;53;53;
72793;PMS5003;63436;26.334;50.194;2023-03-31T02:15:29;58;56;
72793;PMS5003;63436;26.334;50.194;2023-03-31T02:17:54;56;54;
72793;PMS5003;63436;26.334;50.194;2023-03-31T02:20:19;57;54;
72793;PMS5003;63436;26.334;50.194;2023-03-31T02:22:45;53;50;
72793;PMS5003;63436;26.334;50.194;2023-03-31T02:25:10;62;57;
72793;PMS5003;63436;26.334;50.194;2023-03-31T02:27:35;65;58;
72793;PMS5003;63436;26.334;50.194;2023-03-31T02:30:00;60;57;
72793;PMS5003;63436;26.334;50.194;2023-03-31T02:32:27;53;52;
72793;PMS5003;63436;26.334;50.194;2023-03-31T02:34:50;59;53;
72793;PMS5003;63436;26.334;50.194;2023-03-31T02:37:16;58;53;
72793;PMS5003;63436;26.334;50.194;2023-03-31T02:39:42;54;53;
72793;PMS5003;63436;26.334;50.194;2023-03-31T02:42:07;55;52;
72793;PMS5003;63436;26.334;50.194;2023-03-31T02:44:33;54;51;
72793;PMS5003;63436;26.334;50.194;2023-03-31T02:46:58;64;56;
72793;PMS5003;63436;26.334;50.194;2023-03-31T02:49:24;56;53;
72793;PMS5003;63436;26.334;50.194;2023-03-31T02:52:02;55;55;
72793;PMS5003;63436;26.334;50.194;2023-03-31T02:54:19;54;51;
72793;PMS5003;63436;26.334;50.194;2023-03-31T02:56:45;53;52;
72793;PMS5003;63436;26.334;50.194;2023-03-31T02:59:10;55;54;
72793;PMS5003;63436;26.334;50.194;2023-03-31T03:01:36;55;53;
72793;PMS5003;63436;26.334;50.194;2023-03-31T03:03:58;56;54;
72793;PMS5003;63436;26.334;50.194;2023-03-31T03:06:26;53;52;
72793;PMS5003;63436;26.334;50.194;2023-03-31T03:08:51;58;58;
72793;PMS5003;63436;26.334;50.194;2023-03-31T03:11:14;64;59;
72793;PMS5003;63436;26.334;50.194;2023-03-31T03:13:40;59;56;
72793;PMS5003;63436;26.334;50.194;2023-03-31T03:16:05;60;58;
72793;PMS5003;63436;26.334;50.194;2023-03-31T03:18:29;61;57;
72793;PMS5003;63436;26.334;50.194;2023-03-31T03:20:56;61;58;
72793;PMS5003;63436;26.334;50.194;2023-03-31T03:23:21;59;55;
72793;PMS5003;63436;26.334;50.194;2023-03-31T03:25:47;57;55;
72793;PMS5003;63436;26.334;50.194;2023-03-31T03:28:12;57;56;
72793;PMS5003;63436;26.334;50.194;2023-03-31T03:30:37;51;50;
72793;PMS5003;63436;26.334;50.194;2023-03-31T03:33:03;55;53;
72793;PMS5003;63436;26.334;50.194;2023-03-31T03:35:29;58;58;
72793;PMS5003;63436;26.334;50.194;2023-03-31T03:37:54;56;54;
72793;PMS5003;63436;26.334;50.194;2023-03-31T03:40:20;48;46;
72793;PMS5003;63436;26.334;50.194;2023-03-31T03:42:46;58;53;
72793;PMS5003;63436;26.334;50.194;2023-03-31T03:45:11;53;52;
72793;PMS5003;63436;26.334;50.194;2023-03-31T03:47:36;52;52;
72793;PMS5003;63436;26.334;50.194;2023-03-31T03:50:01;48;46;
72793;PMS5003;63436;26.334;50.194;2023-03-31T03:52:27;60;57;
72793;PMS5003;63436;26.334;50.194;2023-03-31T03:54:53;60;60;
72793;PMS5003;63436;26.334;50.194;2023-03-31T03:57:18;56;55;
72793;PMS5003;63436;26.334;50.194;2023-03-31T03:59:43;58;56;
72793;PMS5003;63436;26.334;50.194;2023-03-31T04:02:08;60;57;
72793;PMS5003;63436;26.334;50.194;2023-03-31T04:04:34;60;56;
72793;PMS5003;63436;26.334;50.194;2023-03-31T04:06:59;54;51;
72793;PMS5003;63436;26.334;50.194;2023-03-31T04:09:25;54;54;
72793;PMS5003;63436;26.334;50.194;2023-03-31T04:11:49;54;51;
72793;PMS5003;63436;26.334;50.194;2023-03-31T04:14:15;58;57;
72793;PMS5003;63436;26.334;50.194;2023-03-31T04:16:40;51;49;
72793;PMS5003;63436;26.334;50.194;2023-03-31T04:19:05;55;53;
72793;PMS5003;63436;26.334;50.194;2023-03-31T04:21:31;55;52;
72793;PMS5003;63436;26.334;50.194;2023-03-31T04:23:57;53;52;
72793;PMS5003;63436;26.334;50.194;2023-03-31T04:26:22;60;60;
72793;PMS5003;63436;26.334;50.194;2023-03-31T04:28:47;62;61;
72793;PMS5003;63436;26.334;50.194;2023-03-31T04:31:13;59;58;
72793;PMS5003;63436;26.334;50.194;2023-03-31T04:33:38;56;54;
72793;PMS5003;63436;26.334;50.194;2023-03-31T04:36:04;52;49;
72793;PMS5003;63436;26.334;50.194;2023-03-31T04:38:29;51;50;
72793;PMS5003;63436;26.334;50.194;2023-03-31T04:40:55;43;43;
72793;PMS5003;63436;26.334;50.194;2023-03-31T04:43:21;45;45;
72793;PMS5003;63436;26.334;50.194;2023-03-31T04:45:46;47;46;
72793;PMS5003;63436;26.334;50.194;2023-03-31T04:48:11;46;45;
72793;PMS5003;63436;26.334;50.194;2023-03-31T04:50:37;48;48;
72793;PMS5003;63436;26.334;50.194;2023-03-31T04:53:02;40;40;
72793;PMS5003;63436;26.334;50.194;2023-03-31T04:55:28;46;43;
72793;PMS5003;63436;26.334;50.194;2023-03-31T04:57:54;48;47;
72793;PMS5003;63436;26.334;50.194;2023-03-31T05:00:19;46;45;
72793;PMS5003;63436;26.334;50.194;2023-03-31T05:02:46;41;41;
72793;PMS5003;63436;26.334;50.194;2023-03-31T05:05:09;43;43;
72793;PMS5003;63436;26.334;50.194;2023-03-31T05:07:34;45;44;
72793;PMS5003;63436;26.334;50.194;2023-03-31T05:09:59;48;45;
72793;PMS5003;63436;26.334;50.194;2023-03-31T05:12:26;45;41;
72793;PMS5003;63436;26.334;50.194;2023-03-31T05:14:51;43;41;
72793;PMS5003;63436;26.334;50.194;2023-03-31T05:17:17;43;41;
72793;PMS5003;63436;26.334;50.194;2023-03-31T05:19:42;41;39;
72793;PMS5003;63436;26.334;50.194;2023-03-31T05:22:08;39;38;
72793;PMS5003;63436;26.334;50.194;2023-03-31T05:24:33;41;41;
72793;PMS5003;63436;26.334;50.194;2023-03-31T05:26:59;42;41;
72793;PMS5003;63436;26.334;50.194;2023-03-31T05:29:24;40;39;
72793;PMS5003;63436;26.334;50.194;2023-03-31T05:31:50;37;35;
72793;PMS5003;63436;26.334;50.194;2023-03-31T05:34:15;41;40;
72793;PMS5003;63436;26.334;50.194;2023-03-31T05:36:41;39;39;
72793;PMS5003;63436;26.334;50.194;2023-03-31T05:39:06;40;38;
72793;PMS5003;63436;26.334;50.194;2023-03-31T05:41:31;38;37;
72793;PMS5003;63436;26.334;50.194;2023-03-31T05:43:56;42;41;
72793;PMS5003;63436;26.334;50.194;2023-03-31T05:46:22;43;41;
72793;PMS5003;63436;26.334;50.194;2023-03-31T05:48:47;41;39;
72793;PMS5003;63436;26.334;50.194;2023-03-31T05:51:13;39;37;
72793;PMS5003;63436;26.334;50.194;2023-03-31T05:53:38;44;42;
72793;PMS5003;63436;26.334;50.194;2023-03-31T05:56:05;41;38;
72793;PMS5003;63436;26.334;50.194;2023-03-31T05:58:29;44;43;
72793;PMS5003;63436;26.334;50.194;2023-03-31T06:00:59;41;40;
72793;PMS5003;63436;26.334;50.194;2023-03-31T06:03:20;41;39;
72793;PMS5003;63436;26.334;50.194;2023-03-31T06:05:46;38;38;
72793;PMS5003;63436;26.334;50.194;2023-03-31T06:08:10;43;40;
72793;PMS5003;63436;26.334;50.194;2023-03-31T06:10:37;40;37;
72793;PMS5003;63436;26.334;50.194;2023-03-31T06:13:00;38;38;
72793;PMS5003;63436;26.334;50.194;2023-03-31T06:15:26;43;41;
72793;PMS5003;63436;26.334;50.194;2023-03-31T06:17:52;37;35;
72793;PMS5003;63436;26.334;50.194;2023-03-31T06:20:17;42;39;
72793;PMS5003;63436;26.334;50.194;2023-03-31T06:22:43;34;34;
72793;PMS5003;63436;26.334;50.194;2023-03-31T06:25:08;41;37;
72793;PMS5003;63436;26.334;50.194;2023-03-31T06:27:33;38;36;
72793;PMS5003;63436;26.334;50.194;2023-03-31T06:29:59;44;41;
72793;PMS5003;63436;26.334;50.194;2023-03-31T06:32:25;38;36;
72793;PMS5003;63436;26.334;50.194;2023-03-31T06:34:51;39;35;
72793;PMS5003;63436;26.334;50.194;2023-03-31T06:37:16;36;36;
72793;PMS5003;63436;26.334;50.194;2023-03-31T06:39:41;39;36;
72793;PMS5003;63436;26.334;50.194;2023-03-31T06:42:08;34;34;
72793;PMS5003;63436;26.334;50.194;2023-03-31T06:44:33;38;34;
72793;PMS5003;63436;26.334;50.194;2023-03-31T06:46:59;37;35;
72793;PMS5003;63436;26.334;50.194;2023-03-31T06:49:24;39;39;
72793;PMS5003;63436;26.334;50.194;2023-03-31T06:51:50;39;38;
72793;PMS5003;63436;26.334;50.194;2023-03-31T06:54:15;35;35;
72793;PMS5003;63436;26.334;50.194;2023-03-31T06:56:41;41;37;
72793;PMS5003;63436;26.334;50.194;2023-03-31T06:59:06;39;39;
72793;PMS5003;63436;26.334;50.194;2023-03-31T07:01:32;40;38;
72793;PMS5003;63436;26.334;50.194;2023-03-31T07:03:58;37;36;
72793;PMS5003;63436;26.334;50.194;2023-03-31T07:06:22;42;41;
72793;PMS5003;63436;26.334;50.194;2023-03-31T07:08:48;38;38;
72793;PMS5003;63436;26.334;50.194;2023-03-31T07:11:13;34;34;
72793;PMS5003;63436;26.334;50.194;2023-03-31T07:13:39;41;38;
72793;PMS5003;63436;26.334;50.194;2023-03-31T07:16:05;43;40;
72793;PMS5003;63436;26.334;50.194;2023-03-31T07:18:30;36;35;
72793;PMS5003;63436;26.334;50.194;2023-03-31T07:20:55;36;36;
72793;PMS5003;63436;26.334;50.194;2023-03-31T07:23:21;43;39;
72793;PMS5003;63436;26.334;50.194;2023-03-31T07:25:46;37;37;
72793;PMS5003;63436;26.334;50.194;2023-03-31T07:28:12;37;37;
72793;PMS5003;63436;26.334;50.194;2023-03-31T07:30:37;39;38;
72793;PMS5003;63436;26.334;50.194;2023-03-31T07:33:04;33;31;
72793;PMS5003;63436;26.334;50.194;2023-03-31T07:35:28;35;34;
72793;PMS5003;63436;26.334;50.194;2023-03-31T07:40:24;37;35;
72793;PMS5003;63436;26.334;50.194;2023-03-31T07:42:50;32;32;
72793;PMS5003;63436;26.334;50.194;2023-03-31T07:45:10;35;33;
72793;PMS5003;63436;26.334;50.194;2023-03-31T07:47:35;38;33;
72793;PMS5003;63436;26.334;50.194;2023-03-31T07:50:01;33;30;
72793;PMS5003;63436;26.334;50.194;2023-03-31T07:52:26;35;32;
72793;PMS5003;63436;26.334;50.194;2023-03-31T07:54:51;28;28;
72793;PMS5003;63436;26.334;50.194;2023-03-31T07:57:17;32;29;
72793;PMS5003;63436;26.334;50.194;2023-03-31T07:59:42;29;29;
72793;PMS5003;63436;26.334;50.194;2023-03-31T08:02:08;34;32;
72793;PMS5003;63436;26.334;50.194;2023-03-31T08:04:33;30;30;
72793;PMS5003;63436;26.334;50.194;2023-03-31T08:06:58;35;32;
72793;PMS5003;63436;26.334;50.194;2023-03-31T08:09:24;31;29;
72793;PMS5003;63436;26.334;50.194;2023-03-31T08:11:49;29;29;
72793;PMS5003;63436;26.334;50.194;2023-03-31T08:14:15;29;28;
72793;PMS5003;63436;26.334;50.194;2023-03-31T08:16:39;29;29;
72793;PMS5003;63436;26.334;50.194;2023-03-31T08:19:06;37;34;
72793;PMS5003;63436;26.334;50.194;2023-03-31T08:21:31;33;32;
72793;PMS5003;63436;26.334;50.194;2023-03-31T08:23:56;29;28;
72793;PMS5003;63436;26.334;50.194;2023-03-31T08:26:22;33;33;
72793;PMS5003;63436;26.334;50.194;2023-03-31T08:28:48;29;29;
72793;PMS5003;63436;26.334;50.194;2023-03-31T08:31:13;35;34;
72793;PMS5003;63436;26.334;50.194;2023-03-31T08:33:38;37;37;
72793;PMS5003;63436;26.334;50.194;2023-03-31T08:36:04;35;32;
72793;PMS5003;63436;26.334;50.194;2023-03-31T08:38:29;33;33;
72793;PMS5003;63436;26.334;50.194;2023-03-31T08:40:58;38;38;
72793;PMS5003;63436;26.334;50.194;2023-03-31T08:43:22;37;33;
72793;PMS5003;63436;26.334;50.194;2023-03-31T08:45:45;43;40;
72793;PMS5003;63436;26.334;50.194;2023-03-31T08:48:13;38;37;
72793;PMS5003;63436;26.334;50.194;2023-03-31T08:50:38;37;35;
72793;PMS5003;63436;26.334;50.194;2023-03-31T08:53:03;33;33;
72793;PMS5003;63436;26.334;50.194;2023-03-31T08:55:27;32;31;
72793;PMS5003;63436;26.334;50.194;2023-03-31T08:57:54;37;35;
72793;PMS5003;63436;26.334;50.194;2023-03-31T09:00:18;32;32;
72793;PMS5003;63436;26.334;50.194;2023-03-31T09:02:44;31;31;
72793;PMS5003;63436;26.334;50.194;2023-03-31T09:05:14;29;29;
72793;PMS5003;63436;26.334;50.194;2023-03-31T09:07:34;32;32;
72793;PMS5003;63436;26.334;50.194;2023-03-31T09:10:00;32;32;
72793;PMS5003;63436;26.334;50.194;2023-03-31T09:12:24;34;34;
72793;PMS5003;63436;26.334;50.194;2023-03-31T09:14:49;38;35;
72793;PMS5003;63436;26.334;50.194;2023-03-31T09:17:16;29;28;
72793;PMS5003;63436;26.334;50.194;2023-03-31T09:19:42;31;31;
72793;PMS5003;63436;26.334;50.194;2023-03-31T09:22:08;29;29;
72793;PMS5003;63436;26.334;50.194;2023-03-31T09:24:31;30;29;
72793;PMS5003;63436;26.334;50.194;2023-03-31T09:26:57;30;30;
72793;PMS5003;63436;26.334;50.194;2023-03-31T09:29:22;30;28;
72793;PMS5003;63436;26.334;50.194;2023-03-31T09:31:47;31;30;
72793;PMS5003;63436;26.334;50.194;2023-03-31T09:34:14;29;29;
72793;PMS5003;63436;26.334;50.194;2023-03-31T09:36:38;32;31;
72793;PMS5003;63436;26.334;50.194;2023-03-31T09:39:04;33;32;
72793;PMS5003;63436;26.334;50.194;2023-03-31T09:41:30;32;30;
72793;PMS5003;63436;26.334;50.194;2023-03-31T09:43:55;33;32;
72793;PMS5003;63436;26.334;50.194;2023-03-31T09:46:23;31;30;
72793;PMS5003;63436;26.334;50.194;2023-03-31T09:48:49;33;33;
72793;PMS5003;63436;26.334;50.194;2023-03-31T09:51:13;32;31;
72793;PMS5003;63436;26.334;50.194;2023-03-31T09:53:37;30;29;
72793;PMS5003;63436;26.334;50.194;2023-03-31T09:56:02;35;33;
72793;PMS5003;63436;26.334;50.194;2023-03-31T09:58:27;31;30;
72793;PMS5003;63436;26.334;50.194;2023-03-31T10:00:57;29;29;
72793;PMS5003;63436;26.334;50.194;2023-03-31T10:03:18;30;30;
72793;PMS5003;63436;26.334;50.194;2023-03-31T10:05:48;33;32;
72793;PMS5003;63436;26.334;50.194;2023-03-31T10:08:12;33;33;
72793;PMS5003;63436;26.334;50.194;2023-03-31T10:10:34;29;29;
72793;PMS5003;63436;26.334;50.194;2023-03-31T10:13:00;31;31;
72793;PMS5003;63436;26.334;50.194;2023-03-31T10:15:26;32;31;
72793;PMS5003;63436;26.334;50.194;2023-03-31T10:17:51;30;30;
72793;PMS5003;63436;26.334;50.194;2023-03-31T10:20:18;30;30;
72793;PMS5003;63436;26.334;50.194;2023-03-31T10:22:43;32;32;
72793;PMS5003;63436;26.334;50.194;2023-03-31T10:25:15;29;29;
72793;PMS5003;63436;26.334;50.194;2023-03-31T10:27:32;35;30;
72793;PMS5003;63436;26.334;50.194;2023-03-31T10:29:58;29;29;
72793;PMS5003;63436;26.334;50.194;2023-03-31T10:32:24;31;30;
72793;PMS5003;63436;26.334;50.194;2023-03-31T10:34:48;31;30;
72793;PMS5003;63436;26.334;50.194;2023-03-31T10:37:15;30;28;
72793;PMS5003;63436;26.334;50.194;2023-03-31T10:39:39;31;27;
72793;PMS5003;63436;26.334;50.194;2023-03-31T10:42:05;33;31;
72793;PMS5003;63436;26.334;50.194;2023-03-31T10:44:31;35;34;
72793;PMS5003;63436;26.334;50.194;2023-03-31T10:46:55;31;30;
72793;PMS5003;63436;26.334;50.194;2023-03-31T10:49:23;30;30;
72793;PMS5003;63436;26.334;50.194;2023-03-31T10:51:48;29;28;
72793;PMS5003;63436;26.334;50.194;2023-03-31T10:54:12;32;32;
72793;PMS5003;63436;26.334;50.194;2023-03-31T10:56:43;32;31;
72793;PMS5003;63436;26.334;50.194;2023-03-31T10:59:06;32;31;
72793;PMS5003;63436;26.334;50.194;2023-03-31T11:01:30;33;33;
72793;PMS5003;63436;26.334;50.194;2023-03-31T11:03:59;34;31;
72793;PMS5003;63436;26.334;50.194;2023-03-31T11:06:21;30;28;
72793;PMS5003;63436;26.334;50.194;2023-03-31T11:08:48;28;27;
72793;PMS5003;63436;26.334;50.194;2023-03-31T11:11:13;30;30;
72793;PMS5003;63436;26.334;50.194;2023-03-31T11:13:36;30;30;
72793;PMS5003;63436;26.334;50.194;2023-03-31T11:16:01;27;27;
72793;PMS5003;63436;26.334;50.194;2023-03-31T11:18:31;31;30;
72793;PMS5003;63436;26.334;50.194;2023-03-31T11:20:54;30;30;
72793;PMS5003;63436;26.334;50.194;2023-03-31T11:23:17;27;27;
72793;PMS5003;63436;26.334;50.194;2023-03-31T11:25:44;28;28;
72793;PMS5003;63436;26.334;50.194;2023-03-31T11:30:34;32;31;
72793;PMS5003;63436;26.334;50.194;2023-03-31T11:33:03;33;32;
72793;PMS5003;63436;26.334;50.194;2023-03-31T11:37:54;33;33;
72793;PMS5003;63436;26.334;50.194;2023-03-31T11:40:20;33;32;
72793;PMS5003;63436;26.334;50.194;2023-03-31T11:42:41;32;32;
72793;PMS5003;63436;26.334;50.194;2023-03-31T11:45:10;34;32;
72793;PMS5003;63436;26.334;50.194;2023-03-31T11:47:31;34;34;
72793;PMS5003;63436;26.334;50.194;2023-03-31T11:49:55;31;31;
72793;PMS5003;63436;26.334;50.194;2023-03-31T11:52:23;31;28;
72793;PMS5003;63436;26.334;50.194;2023-03-31T11:54:48;31;31;
72793;PMS5003;63436;26.334;50.194;2023-03-31T11:57:12;30;29;
72793;PMS5003;63436;26.334;50.194;2023-03-31T11:59:45;31;29;
72793;PMS5003;63436;26.334;50.194;2023-03-31T12:02:03;26;26;
72793;PMS5003;63436;26.334;50.194;2023-03-31T12:04:31;30;30;
72793;PMS5003;63436;26.334;50.194;2023-03-31T12:06:54;31;31;
72793;PMS5003;63436;26.334;50.194;2023-03-31T12:09:20;32;31;
72793;PMS5003;63436;26.334;50.194;2023-03-31T12:11:45;33;32;
72793;PMS5003;63436;26.334;50.194;2023-03-31T12:14:13;34;33;
72793;PMS5003;63436;26.334;50.194;2023-03-31T12:16:36;36;36;
72793;PMS5003;63436;26.334;50.194;2023-03-31T12:19:01;37;33;
72793;PMS5003;63436;26.334;50.194;2023-03-31T12:21:25;34;33;
72793;PMS5003;63436;26.334;50.194;2023-03-31T12:23:51;38;37;
72793;PMS5003;63436;26.334;50.194;2023-03-31T12:26:21;30;30;
72793;PMS5003;63436;26.334;50.194;2023-03-31T12:28:41;34;34;
72793;PMS5003;63436;26.334;50.194;2023-03-31T12:31:06;31;31;
72793;PMS5003;63436;26.334;50.194;2023-03-31T12:33:32;34;31;
72793;PMS5003;63436;26.334;50.194;2023-03-31T12:36:02;34;34;
72793;PMS5003;63436;26.334;50.194;2023-03-31T12:38:26;32;30;
72793;PMS5003;63436;26.334;50.194;2023-03-31T12:40:51;31;31;
72793;PMS5003;63436;26.334;50.194;2023-03-31T12:43:18;33;33;
72793;PMS5003;63436;26.334;50.194;2023-03-31T12:45:40;32;30;
72793;PMS5003;63436;26.334;50.194;2023-03-31T12:48:14;31;29;
72793;PMS5003;63436;26.334;50.194;2023-03-31T12:50:34;35;35;
72793;PMS5003;63436;26.334;50.194;2023-03-31T12:52:57;40;37;
72793;PMS5003;63436;26.334;50.194;2023-03-31T12:55:29;39;39;
72793;PMS5003;63436;26.334;50.194;2023-03-31T12:57:46;41;40;
72793;PMS5003;63436;26.334;50.194;2023-03-31T13:00:18;38;38;
72793;PMS5003;63436;26.334;50.194;2023-03-31T13:02:37;38;38;
72793;PMS5003;63436;26.334;50.194;2023-03-31T13:07:34;42;38;
72793;PMS5003;63436;26.334;50.194;2023-03-31T13:09:55;39;38;
72793;PMS5003;63436;26.334;50.194;2023-03-31T13:12:19;34;34;
72793;PMS5003;63436;26.334;50.194;2023-03-31T13:14:44;34;34;
72793;PMS5003;63436;26.334;50.194;2023-03-31T13:17:11;38;36;
72793;PMS5003;63436;26.334;50.194;2023-03-31T13:19:34;42;39;
72793;PMS5003;63436;26.334;50.194;2023-03-31T13:22:01;40;40;
72793;PMS5003;63436;26.334;50.194;2023-03-31T13:24:26;47;44;
72793;PMS5003;63436;26.334;50.194;2023-03-31T13:26:52;41;41;
72793;PMS5003;63436;26.334;50.194;2023-03-31T13:29:18;37;37;
72793;PMS5003;63436;26.334;50.194;2023-03-31T13:34:08;46;46;
72793;PMS5003;63436;26.334;50.194;2023-03-31T13:36:45;43;41;
72793;PMS5003;63436;26.334;50.194;2023-03-31T13:39:04;42;41;
72793;PMS5003;63436;26.334;50.194;2023-03-31T13:41:28;43;42;
72793;PMS5003;63436;26.334;50.194;2023-03-31T13:46:20;47;47;
72793;PMS5003;63436;26.334;50.194;2023-03-31T13:48:43;45;44;
72793;PMS5003;63436;26.334;50.194;2023-03-31T13:53:36;43;41;
72793;PMS5003;63436;26.334;50.194;2023-03-31T13:56:03;43;39;
72793;PMS5003;63436;26.334;50.194;2023-03-31T13:58:25;44;42;
72793;PMS5003;63436;26.334;50.194;2023-03-31T14:00:51;40;38;
72793;PMS5003;63436;26.334;50.194;2023-03-31T14:03:19;42;41;
72793;PMS5003;63436;26.334;50.194;2023-03-31T14:05:39;47;44;
72793;PMS5003;63436;26.334;50.194;2023-03-31T14:08:05;46;44;
72793;PMS5003;63436;26.334;50.194;2023-03-31T14:10:30;44;41;
72793;PMS5003;63436;26.334;50.194;2023-03-31T14:13:05;44;42;
72793;PMS5003;63436;26.334;50.194;2023-03-31T14:15:21;49;45;
72793;PMS5003;63436;26.334;50.194;2023-03-31T14:17:46;45;43;
72793;PMS5003;63436;26.334;50.194;2023-03-31T14:22:41;51;51;
72793;PMS5003;63436;26.334;50.194;2023-03-31T14:25:04;51;50;
72793;PMS5003;63436;26.334;50.194;2023-03-31T14:27:34;52;49;
72793;PMS5003;63436;26.334;50.194;2023-03-31T14:29:54;52;51;
72793;PMS5003;63436;26.334;50.194;2023-03-31T14:32:20;48;46;
72793;PMS5003;63436;26.334;50.194;2023-03-31T14:34:46;51;51;
72793;PMS5003;63436;26.334;50.194;2023-03-31T14:37:10;51;50;
72793;PMS5003;63436;26.334;50.194;2023-03-31T14:39:35;53;52;
72793;PMS5003;63436;26.334;50.194;2023-03-31T14:42:02;52;51;
72793;PMS5003;63436;26.334;50.194;2023-03-31T14:44:26;51;51;
72793;PMS5003;63436;26.334;50.194;2023-03-31T14:46:51;55;52;
72793;PMS5003;63436;26.334;50.194;2023-03-31T14:49:18;49;49;
72793;PMS5003;63436;26.334;50.194;2023-03-31T14:51:42;57;51;
72793;PMS5003;63436;26.334;50.194;2023-03-31T14:56:33;51;49;
72793;PMS5003;63436;26.334;50.194;2023-03-31T14:58:58;48;47;
72793;PMS5003;63436;26.334;50.194;2023-03-31T15:01:24;43;43;
72793;PMS5003;63436;26.334;50.194;2023-03-31T15:03:49;47;45;
72793;PMS5003;63436;26.334;50.194;2023-03-31T15:06:14;46;45;
72793;PMS5003;63436;26.334;50.194;2023-03-31T15:08:39;41;41;
72793;PMS5003;63436;26.334;50.194;2023-03-31T15:11:04;44;44;
72793;PMS5003;63436;26.334;50.194;2023-03-31T15:13:31;45;42;
72793;PMS5003;63436;26.334;50.194;2023-03-31T15:15:55;40;39;
72793;PMS5003;63436;26.334;50.194;2023-03-31T15:18:20;36;35;
72793;PMS5003;63436;26.334;50.194;2023-03-31T15:20:45;35;35;
72793;PMS5003;63436;26.334;50.194;2023-03-31T15:23:19;35;33;
72793;PMS5003;63436;26.334;50.194;2023-03-31T15:25:35;33;33;
72793;PMS5003;63436;26.334;50.194;2023-03-31T15:28:02;34;34;
72793;PMS5003;63436;26.334;50.194;2023-03-31T15:30:26;32;32;
72793;PMS5003;63436;26.334;50.194;2023-03-31T15:32:52;35;35;
72793;PMS5003;63436;26.334;50.194;2023-03-31T15:35:19;39;37;
72793;PMS5003;63436;26.334;50.194;2023-03-31T15:37:43;36;35;
72793;PMS5003;63436;26.334;50.194;2023-03-31T15:40:14;31;30;
72793;PMS5003;63436;26.334;50.194;2023-03-31T15:42:34;33;32;
72793;PMS5003;63436;26.334;50.194;2023-03-31T15:45:09;31;31;
72793;PMS5003;63436;26.334;50.194;2023-03-31T15:47:26;35;33;
72793;PMS5003;63436;26.334;50.194;2023-03-31T15:49:51;36;33;
72793;PMS5003;63436;26.334;50.194;2023-03-31T15:52:19;33;32;
72793;PMS5003;63436;26.334;50.194;2023-03-31T15:54:40;34;32;
72793;PMS5003;63436;26.334;50.194;2023-03-31T15:57:07;35;34;
72793;PMS5003;63436;26.334;50.194;2023-03-31T15:59:34;44;39;
72793;PMS5003;63436;26.334;50.194;2023-03-31T16:01:57;37;34;
72793;PMS5003;63436;26.334;50.194;2023-03-31T16:04:23;40;36;
72793;PMS5003;63436;26.334;50.194;2023-03-31T16:06:49;36;35;
72793;PMS5003;63436;26.334;50.194;2023-03-31T16:09:14;36;35;
72793;PMS5003;63436;26.334;50.194;2023-03-31T16:11:39;37;36;
72793;PMS5003;63436;26.334;50.194;2023-03-31T16:14:05;33;32;
72793;PMS5003;63436;26.334;50.194;2023-03-31T16:16:30;36;35;
72793;PMS5003;63436;26.334;50.194;2023-03-31T16:18:59;32;31;
72793;PMS5003;63436;26.334;50.194;2023-03-31T16:21:21;38;37;
72793;PMS5003;63436;26.334;50.194;2023-03-31T16:23:49;34;34;
72793;PMS5003;63436;26.334;50.194;2023-03-31T16:26:11;33;31;